Time;durP1;ratioP1;P1;durP2;ratioP2;P2;SDS_P1;SDS_P2;PMS_P1;PMS_P2;Temp;Humidity;BMP_temperature;BMP_pressure;BME280_temperature;BME280_humidity;BME280_pressure;Samples;Min_cycle;Max_cycle;Signal;HPM_P1;HPM_P2
2022/04/09 00:02:20;;;;;;;7.30;1.88;;;3.90;99.90;;;;;;5152757;27;20043;-76
2022/04/09 00:04:47;;;;;;;9.38;2.63;;;3.90;99.90;;;;;;5148176;27;20118;-75
2022/04/09 00:07:13;;;;;;;6.80;2.22;;;3.90;99.90;;;;;;5152280;27;20399;-76
2022/04/09 00:09:39;;;;;;;10.70;1.98;;;4.10;99.90;;;;;;5128220;27;20529;-75
2022/04/09 00:12:05;;;;;;;7.07;1.80;;;4.30;99.90;;;;;;5132110;27;20055;-75
2022/04/09 00:14:31;;;;;;;12.05;2.70;;;4.30;99.90;;;;;;5148432;27;20047;-76
2022/04/09 00:16:57;;;;;;;6.50;1.85;;;4.20;99.90;;;;;;5137104;27;20063;-75
2022/04/09 00:19:22;;;;;;;6.95;2.75;;;4.30;99.90;;;;;;5150593;27;20126;-75
2022/04/09 00:21:48;;;;;;;11.20;2.50;;;4.40;99.90;;;;;;5129198;27;20053;-75
2022/04/09 00:24:14;;;;;;;9.63;2.50;;;4.40;99.90;;;;;;5128476;27;20050;-75
2022/04/09 00:26:40;;;;;;;9.13;2.00;;;4.40;99.90;;;;;;5129639;27;20043;-75
2022/04/09 00:29:06;;;;;;;9.48;2.55;;;4.40;99.90;;;;;;5127349;27;20052;-75
2022/04/09 00:31:32;;;;;;;13.25;2.95;;;4.40;99.90;;;;;;5145752;27;20100;-75
2022/04/09 00:33:58;;;;;;;8.25;2.80;;;4.50;99.90;;;;;;5126690;27;20597;-76
2022/04/09 00:36:24;;;;;;;10.63;3.03;;;4.40;99.90;;;;;;5127643;27;20043;-75
2022/04/09 00:38:51;;;;;;;10.82;2.30;;;4.30;99.90;;;;;;5145943;27;20054;-75
2022/04/09 00:41:18;;;;;;;8.35;2.28;;;4.10;99.90;;;;;;5131928;27;20111;-75
2022/04/09 00:43:44;;;;;;;10.45;2.70;;;4.20;99.90;;;;;;5148979;27;20047;-75
2022/04/09 00:46:14;;;;;;;10.05;2.42;;;4.20;99.90;;;;;;5149594;27;20045;-75
2022/04/09 00:48:41;;;;;;;10.70;2.80;;;4.20;99.90;;;;;;5148789;27;20043;-75
2022/04/09 00:51:07;;;;;;;8.73;2.30;;;4.10;99.90;;;;;;5149780;27;20114;-75
2022/04/09 00:53:35;;;;;;;14.13;2.55;;;4.00;99.90;;;;;;5149686;27;20076;-76
2022/04/09 00:56:20;;;;;;;8.70;2.20;;;3.90;99.90;;;;;;5150487;27;20098;-76
2022/04/09 00:59:00;;;;;;;8.45;2.65;;;3.90;99.90;;;;;;5132778;27;20041;-75
2022/04/09 01:01:27;;;;;;;;;;;3.90;99.90;;;;;;5149617;27;20046;-75
2022/04/09 01:03:53;;;;;;;11.05;2.92;;;4.00;99.90;;;;;;5148149;27;19930;-76
2022/04/09 01:06:19;;;;;;;7.40;2.88;;;4.10;99.90;;;;;;5148999;27;20070;-75
2022/04/09 01:08:45;;;;;;;8.45;2.30;;;4.10;99.90;;;;;;5144443;27;20050;-75
2022/04/09 01:11:13;;;;;;;12.48;2.60;;;4.10;99.90;;;;;;5148551;27;20367;-75
2022/04/09 01:13:39;;;;;;;7.28;2.30;;;4.00;99.90;;;;;;5162089;27;20123;-75
2022/04/09 01:16:05;;;;;;;11.13;2.78;;;4.20;99.90;;;;;;5148896;27;20074;-75
2022/04/09 01:18:33;;;;;;;10.32;2.35;;;4.30;99.90;;;;;;5148778;27;20429;-75
2022/04/09 01:21:00;;;;;;;9.23;2.28;;;4.20;99.90;;;;;;5148353;27;20049;-76
2022/04/09 01:23:27;;;;;;;8.75;2.00;;;4.30;99.90;;;;;;5150267;27;20038;-76
2022/04/09 01:25:55;;;;;;;7.43;2.72;;;4.30;99.90;;;;;;5131455;27;20042;-76
2022/04/09 01:28:20;;;;;;;7.43;2.17;;;4.30;99.90;;;;;;5128134;27;20050;-76
2022/04/09 01:30:46;;;;;;;7.20;1.75;;;4.30;99.90;;;;;;5148332;27;20122;-75
2022/04/09 01:33:20;;;;;;;4.68;1.83;;;4.30;99.90;;;;;;5146772;27;20119;-76
2022/04/09 01:35:47;;;;;;;11.75;2.92;;;4.20;99.90;;;;;;5148433;27;20083;-75
2022/04/09 01:38:13;;;;;;;4.40;1.50;;;4.10;99.90;;;;;;5147804;27;20046;-75
2022/04/09 01:40:39;;;;;;;6.85;1.67;;;4.10;99.90;;;;;;5147817;27;20419;-75
2022/04/09 01:43:05;;;;;;;6.15;1.60;;;4.00;99.90;;;;;;5146873;27;20076;-75
2022/04/09 01:45:31;;;;;;;5.53;1.63;;;4.00;99.90;;;;;;5148167;27;20351;-75
2022/04/09 01:48:00;;;;;;;5.55;1.60;;;3.90;99.90;;;;;;5147831;27;20050;-76
2022/04/09 01:50:26;;;;;;;9.35;2.17;;;3.80;99.90;;;;;;5147930;27;20051;-75
2022/04/09 01:52:55;;;;;;;5.15;1.70;;;3.70;99.90;;;;;;5145550;27;20133;-75
2022/04/09 01:55:21;;;;;;;5.18;1.55;;;3.70;99.90;;;;;;5148933;27;20110;-75
2022/04/09 01:57:48;;;;;;;3.17;1.50;;;3.80;99.90;;;;;;5163744;27;20039;-75
2022/04/09 02:00:16;;;;;;;6.70;1.67;;;3.70;99.90;;;;;;5160764;27;20042;-76
2022/04/09 02:02:42;;;;;;;6.80;1.70;;;3.80;99.90;;;;;;5147753;27;20043;-75
2022/04/09 02:05:11;;;;;;;5.53;1.45;;;3.60;99.90;;;;;;5148121;27;20141;-76
2022/04/09 02:07:37;;;;;;;6.97;1.80;;;3.60;99.90;;;;;;5147523;27;20074;-75
2022/04/09 02:10:04;;;;;;;4.72;1.77;;;3.60;99.90;;;;;;5166282;27;20046;-75
2022/04/09 02:12:31;;;;;;;11.88;2.10;;;3.70;99.90;;;;;;5147334;27;20400;-75
2022/04/09 02:14:57;;;;;;;7.47;2.13;;;3.60;99.90;;;;;;5147390;27;20061;-76
2022/04/09 02:17:23;;;;;;;10.52;2.78;;;3.60;99.90;;;;;;5121566;27;20051;-75
2022/04/09 02:19:48;;;;;;;6.50;1.88;;;3.60;99.90;;;;;;5162652;27;20038;-75
2022/04/09 02:22:14;;;;;;;8.30;2.47;;;3.50;99.90;;;;;;5166106;27;20171;-75
2022/04/09 02:24:40;;;;;;;7.07;2.05;;;3.50;99.90;;;;;;5147714;27;20054;-75
2022/04/09 02:27:06;;;;;;;5.70;1.80;;;3.50;99.90;;;;;;5146908;27;20044;-75
2022/04/09 02:29:32;;;;;;;12.65;2.03;;;3.50;99.90;;;;;;5131202;27;20082;-75
2022/04/09 02:32:00;;;;;;;8.10;1.73;;;3.50;99.90;;;;;;5147416;27;20042;-75
2022/04/09 02:34:26;;;;;;;7.80;2.08;;;3.40;99.90;;;;;;5147352;27;20057;-75
2022/04/09 02:36:51;;;;;;;6.63;1.67;;;3.30;99.90;;;;;;5148610;27;20046;-75
2022/04/09 02:39:21;;;;;;;6.97;2.00;;;3.30;99.90;;;;;;5145310;27;20058;-75
2022/04/09 02:41:50;;;;;;;5.53;2.05;;;3.30;99.90;;;;;;5127383;27;20051;-75
2022/04/09 02:44:19;;;;;;;4.45;1.85;;;3.50;99.90;;;;;;5127754;27;20039;-75
2022/04/09 02:46:48;;;;;;;7.10;1.92;;;3.50;99.90;;;;;;5145242;27;20043;-76
2022/04/09 02:49:14;;;;;;;10.18;2.17;;;3.50;99.90;;;;;;5127084;27;20058;-75
2022/04/09 02:51:40;;;;;;;6.50;1.85;;;3.70;99.90;;;;;;5126122;27;20086;-75
2022/04/09 02:54:06;;;;;;;7.75;1.70;;;3.70;99.90;;;;;;5124846;27;20063;-75
2022/04/09 02:56:32;;;;;;;10.23;2.00;;;3.70;99.90;;;;;;5144059;27;20039;-76
2022/04/09 02:58:57;;;;;;;9.32;2.08;;;3.60;99.90;;;;;;5126904;27;20050;-76
2022/04/09 03:01:27;;;;;;;11.50;2.50;;;3.50;99.90;;;;;;5125811;27;20142;-75
2022/04/09 03:03:53;;;;;;;8.70;2.22;;;3.50;99.90;;;;;;5126423;28;20043;-76
2022/04/09 03:06:18;;;;;;;10.05;2.00;;;3.50;99.90;;;;;;5126775;28;20127;-75
2022/04/09 03:08:44;;;;;;;8.35;2.25;;;3.40;99.90;;;;;;5125981;28;20090;-76
2022/04/09 03:11:10;;;;;;;9.98;2.50;;;3.30;99.90;;;;;;5109411;28;20500;-75
2022/04/09 03:13:35;;;;;;;7.38;2.30;;;3.40;99.90;;;;;;5138391;28;20047;-75
2022/04/09 03:16:01;;;;;;;7.13;1.88;;;3.30;99.90;;;;;;5125747;28;20083;-76
2022/04/09 03:18:27;;;;;;;7.35;2.25;;;3.10;99.90;;;;;;5126171;28;20051;-76
2022/04/09 03:20:52;;;;;;;6.57;2.20;;;3.10;99.90;;;;;;5144668;28;20039;-75
2022/04/09 03:23:18;;;;;;;6.32;2.28;;;2.90;99.90;;;;;;5144397;28;20047;-75
2022/04/09 03:25:44;;;;;;;6.82;1.92;;;2.90;99.90;;;;;;5143997;28;20035;-76
2022/04/09 03:28:09;;;;;;;9.20;2.15;;;2.90;99.90;;;;;;5136180;28;20039;-75
2022/04/09 03:30:35;;;;;;;11.05;2.42;;;2.80;99.90;;;;;;5125697;28;20047;-75
2022/04/09 03:33:01;;;;;;;12.40;2.30;;;2.80;99.90;;;;;;5145579;28;20085;-76
2022/04/09 03:35:27;;;;;;;9.30;2.22;;;2.80;99.90;;;;;;5126764;28;20331;-75
2022/04/09 03:37:53;;;;;;;11.63;2.45;;;2.80;99.90;;;;;;5127713;27;20043;-76
2022/04/09 03:40:18;;;;;;;11.98;2.92;;;2.80;99.90;;;;;;5139393;27;20082;-76
2022/04/09 03:42:44;;;;;;;9.02;2.63;;;2.90;99.90;;;;;;5151533;27;20066;-75
2022/04/09 03:45:10;;;;;;;8.60;2.50;;;2.80;99.90;;;;;;5150471;27;20047;-75
2022/04/09 03:47:36;;;;;;;8.30;2.20;;;2.80;99.90;;;;;;5151273;27;20461;-75
2022/04/09 03:50:03;;;;;;;9.13;2.50;;;2.90;99.90;;;;;;5149849;27;20107;-75
2022/04/09 03:52:29;;;;;;;13.35;1.95;;;3.00;99.90;;;;;;5139944;27;20072;-75
2022/04/09 03:54:55;;;;;;;10.38;2.15;;;3.30;99.90;;;;;;5147052;27;20043;-75
2022/04/09 03:57:21;;;;;;;7.80;1.70;;;3.20;99.90;;;;;;5149984;27;20039;-76
2022/04/09 03:59:48;;;;;;;7.85;2.45;;;3.30;99.90;;;;;;5150066;27;20411;-75
2022/04/09 04:02:14;;;;;;;14.57;2.20;;;3.50;99.90;;;;;;5150403;27;20043;-75
2022/04/09 04:04:40;;;;;;;9.40;2.15;;;3.50;99.90;;;;;;5133345;27;20061;-75
2022/04/09 04:07:06;;;;;;;8.13;1.70;;;3.50;99.90;;;;;;5149480;27;20078;-75
2022/04/09 04:09:31;;;;;;;11.18;2.08;;;3.40;99.90;;;;;;5127739;27;20615;-76
2022/04/09 04:11:57;;;;;;;10.27;2.45;;;3.50;99.90;;;;;;5133888;27;20050;-75
2022/04/09 04:14:25;;;;;;;5.95;1.63;;;3.50;99.90;;;;;;5150998;27;20103;-75
2022/04/09 04:16:51;;;;;;;6.78;1.55;;;3.50;99.90;;;;;;5168874;27;20077;-75
2022/04/09 04:19:17;;;;;;;13.82;2.15;;;3.40;99.90;;;;;;5150054;27;20046;-75
2022/04/09 04:21:42;;;;;;;8.20;2.63;;;3.40;99.90;;;;;;5149543;27;20106;-75
2022/04/09 04:24:08;;;;;;;8.80;1.98;;;3.50;99.90;;;;;;5168117;27;20039;-76
2022/04/09 04:26:34;;;;;;;9.52;1.80;;;3.50;99.90;;;;;;5167523;27;20046;-75
2022/04/09 04:29:00;;;;;;;9.68;2.25;;;3.40;99.90;;;;;;5168584;27;20506;-75
2022/04/09 04:31:25;;;;;;;5.63;1.80;;;3.40;99.90;;;;;;5132208;27;20042;-75
2022/04/09 04:33:51;;;;;;;5.85;1.80;;;3.50;99.90;;;;;;5149328;27;20394;-75
2022/04/09 04:36:17;;;;;;;4.93;1.73;;;3.30;99.90;;;;;;5149571;27;20039;-75
2022/04/09 04:38:43;;;;;;;6.65;1.85;;;3.40;99.90;;;;;;5168133;27;20130;-75
2022/04/09 04:41:08;;;;;;;10.45;1.83;;;3.30;99.90;;;;;;5147404;27;20166;-75
2022/04/09 04:43:34;;;;;;;8.63;1.52;;;3.40;99.90;;;;;;5129477;27;20039;-75
2022/04/09 04:46:00;;;;;;;6.35;1.83;;;3.40;99.90;;;;;;5129695;27;20047;-76
2022/04/09 04:48:26;;;;;;;6.03;1.52;;;3.30;99.90;;;;;;5112064;27;20047;-75
2022/04/09 04:50:52;;;;;;;6.78;1.45;;;3.40;99.90;;;;;;5126204;27;20039;-76
2022/04/09 04:53:17;;;;;;;6.72;1.75;;;3.30;99.90;;;;;;5140741;27;20432;-75
2022/04/09 04:55:43;;;;;;;10.07;1.77;;;3.30;99.90;;;;;;5147997;27;20050;-76
2022/04/09 04:58:08;;;;;;;7.28;1.52;;;3.30;99.90;;;;;;5128620;27;20039;-75
2022/04/09 05:00:34;;;;;;;5.70;1.38;;;3.30;99.90;;;;;;5145061;27;20047;-76
2022/04/09 05:03:00;;;;;;;2.58;1.48;;;3.30;99.90;;;;;;5146960;27;20177;-75
2022/04/09 05:05:26;;;;;;;5.72;2.20;;;3.30;99.90;;;;;;5147549;27;20047;-75
2022/04/09 05:07:53;;;;;;;9.15;1.67;;;3.20;99.90;;;;;;5146269;27;20047;-75
2022/04/09 05:10:21;;;;;;;7.30;1.65;;;3.30;99.90;;;;;;5127269;27;20055;-76
2022/04/09 05:12:48;;;;;;;7.28;1.95;;;3.40;99.90;;;;;;5109900;27;20066;-75
2022/04/09 05:15:15;;;;;;;7.00;1.95;;;3.40;99.90;;;;;;5109506;27;20047;-75
2022/04/09 05:17:42;;;;;;;4.97;1.52;;;3.50;99.90;;;;;;5146528;27;20047;-75
2022/04/09 05:20:10;;;;;;;4.55;1.52;;;3.60;99.90;;;;;;5145997;27;20043;-75
2022/04/09 05:22:38;;;;;;;10.15;2.28;;;3.60;99.90;;;;;;5124524;28;20048;-76
2022/04/09 05:25:04;;;;;;;7.03;1.73;;;3.70;99.90;;;;;;5125503;27;20051;-76
2022/04/09 05:27:30;;;;;;;10.15;2.10;;;3.70;99.90;;;;;;5128723;27;20043;-75
2022/04/09 05:29:56;;;;;;;7.18;1.95;;;3.90;99.90;;;;;;5128498;27;20049;-75
2022/04/09 05:32:22;;;;;;;9.90;1.50;;;3.90;99.90;;;;;;5127866;27;20063;-75
2022/04/09 05:34:48;;;;;;;7.15;2.03;;;3.80;99.90;;;;;;5127387;27;20649;-76
2022/04/09 05:37:13;;;;;;;7.55;1.88;;;3.80;99.90;;;;;;5128156;27;20043;-75
2022/04/09 05:39:41;;;;;;;7.13;1.90;;;3.80;99.90;;;;;;5131920;27;20054;-75
2022/04/09 05:42:07;;;;;;;5.57;1.67;;;3.80;99.90;;;;;;5148090;27;20086;-75
2022/04/09 05:44:32;;;;;;;9.32;2.25;;;3.80;99.90;;;;;;5127819;27;20533;-75
2022/04/09 05:47:00;;;;;;;7.03;1.65;;;3.90;99.90;;;;;;5164690;27;20054;-75
2022/04/09 05:49:26;;;;;;;9.15;1.95;;;3.90;99.90;;;;;;5148124;27;20068;-75
2022/04/09 05:51:52;;;;;;;9.98;2.50;;;3.90;99.90;;;;;;5148011;27;20055;-75
2022/04/09 05:54:17;;;;;;;11.40;2.95;;;4.00;99.90;;;;;;5147668;27;20043;-76
2022/04/09 05:56:43;;;;;;;5.45;1.88;;;4.10;99.90;;;;;;5147375;27;20038;-75
2022/04/09 05:59:09;;;;;;;8.23;2.95;;;4.00;99.90;;;;;;5147963;27;20046;-75
2022/04/09 06:01:35;;;;;;;10.90;2.20;;;4.00;99.90;;;;;;5127533;27;20046;-75
2022/04/09 06:04:01;;;;;;;10.00;2.13;;;4.00;99.90;;;;;;5147354;27;20111;-76
2022/04/09 06:06:27;;;;;;;10.02;2.65;;;4.10;99.90;;;;;;5147810;27;20544;-75
2022/04/09 06:08:54;;;;;;;7.93;2.00;;;4.30;99.90;;;;;;5165973;27;20071;-75
2022/04/09 06:11:19;;;;;;;11.05;2.22;;;4.30;99.90;;;;;;5166182;27;20043;-75
2022/04/09 06:13:45;;;;;;;6.95;2.33;;;4.30;99.90;;;;;;5165676;27;20386;-75
2022/04/09 06:16:11;;;;;;;9.98;2.22;;;4.40;99.90;;;;;;5146157;27;20050;-75
2022/04/09 06:18:38;;;;;;;7.18;2.00;;;4.60;99.90;;;;;;5147848;27;20566;-75
2022/04/09 06:21:07;;;;;;;13.13;2.13;;;4.70;99.90;;;;;;5147363;27;20079;-75
2022/04/09 06:23:33;;;;;;;10.32;1.90;;;4.90;99.90;;;;;;5166400;27;20112;-76
2022/04/09 06:25:59;;;;;;;11.38;2.33;;;5.00;99.90;;;;;;5147048;27;20094;-75
2022/04/09 06:28:25;;;;;;;10.40;2.00;;;5.10;99.90;;;;;;5130050;27;20082;-75
2022/04/09 06:30:52;;;;;;;7.75;2.05;;;5.00;99.90;;;;;;5148150;27;20045;-76
2022/04/09 06:33:18;;;;;;;8.77;1.90;;;4.90;99.90;;;;;;5129847;27;20046;-77
2022/04/09 06:35:44;;;;;;;8.85;2.05;;;4.90;99.90;;;;;;5105626;27;20035;-75
2022/04/09 06:38:09;;;;;;;11.60;2.17;;;4.90;99.90;;;;;;5129520;27;20030;-76
2022/04/09 06:40:35;;;;;;;7.78;2.17;;;4.90;99.90;;;;;;5136318;27;20122;-71
2022/04/09 06:43:01;;;;;;;7.43;2.13;;;4.90;99.90;;;;;;5147663;27;20042;-78
2022/04/09 06:45:27;;;;;;;12.25;2.25;;;5.20;99.90;;;;;;5147825;27;20045;-76
2022/04/09 06:47:52;;;;;;;9.85;1.75;;;5.00;99.90;;;;;;5147516;27;20042;-76
2022/04/09 06:50:18;;;;;;;10.73;2.85;;;5.30;99.90;;;;;;5129664;27;20039;-74
2022/04/09 06:52:45;;;;;;;8.77;1.98;;;5.30;99.90;;;;;;5130066;27;20039;-73
2022/04/09 06:55:11;;;;;;;11.23;2.25;;;5.40;99.90;;;;;;5147858;27;20034;-73
2022/04/09 06:57:38;;;;;;;4.80;1.92;;;5.40;99.90;;;;;;5129662;27;20102;-72
2022/04/09 07:00:07;;;;;;;11.32;2.60;;;5.60;99.90;;;;;;5127781;27;20045;-72
2022/04/09 07:02:34;;;;;;;12.13;1.83;;;5.70;99.90;;;;;;5130010;27;20054;-72
2022/04/09 07:05:00;;;;;;;8.60;1.83;;;5.80;99.90;;;;;;5146495;27;20038;-72
2022/04/09 07:07:27;;;;;;;10.68;1.92;;;5.90;99.90;;;;;;5146933;27;20490;-73
2022/04/09 07:10:09;;;;;;;10.70;2.30;;;6.10;99.90;;;;;;5146732;27;20057;-73
2022/04/09 07:12:36;;;;;;;12.23;2.20;;;6.20;99.90;;;;;;5147767;27;20440;-73
2022/04/09 07:15:03;;;;;;;8.90;1.98;;;6.20;99.90;;;;;;5145568;27;20128;-74
2022/04/09 07:17:30;;;;;;;7.70;2.92;;;6.30;99.90;;;;;;5136840;27;20050;-75
2022/04/09 07:20:04;;;;;;;8.77;1.77;;;6.30;99.90;;;;;;5150737;27;20090;-73
2022/04/09 07:22:30;;;;;;;10.15;1.98;;;6.30;99.90;;;;;;5129886;27;20035;-74
2022/04/09 07:24:56;;;;;;;10.35;1.98;;;6.30;99.90;;;;;;5131578;27;20119;-76
2022/04/09 07:27:37;;;;;;;7.70;1.88;;;6.20;99.90;;;;;;5132139;27;20459;-75
2022/04/09 07:30:05;;;;;;;15.50;2.20;;;6.30;99.90;;;;;;5169288;27;20038;-74
2022/04/09 07:32:30;;;;;;;11.85;2.00;;;6.40;99.90;;;;;;5150748;27;20118;-74
2022/04/09 07:34:56;;;;;;;11.57;2.20;;;6.50;99.90;;;;;;5134363;27;20066;-76
2022/04/09 07:37:22;;;;;;;8.32;2.15;;;6.60;99.90;;;;;;5132940;27;20087;-80
2022/04/09 07:39:47;;;;;;;12.48;2.33;;;6.60;99.90;;;;;;5145181;27;20082;-77
2022/04/09 07:42:13;;;;;;;9.68;2.33;;;6.70;99.90;;;;;;5147380;27;20061;-77
2022/04/09 07:44:39;;;;;;;11.18;2.08;;;6.80;99.90;;;;;;5149386;27;20049;-76
2022/04/09 07:47:05;;;;;;;10.48;2.17;;;6.80;99.90;;;;;;5129160;27;20073;-76
2022/04/09 07:49:30;;;;;;;12.07;2.28;;;6.90;99.90;;;;;;5130017;27;20069;-77
2022/04/09 07:51:56;;;;;;;16.15;3.78;;;6.90;99.90;;;;;;5130302;27;20043;-77
2022/04/09 07:54:24;;;;;;;8.75;2.10;;;6.90;99.90;;;;;;5113181;27;20098;-77
2022/04/09 07:56:50;;;;;;;9.02;1.85;;;6.90;99.90;;;;;;5129970;27;20047;-75
2022/04/09 07:59:16;;;;;;;16.20;2.53;;;7.10;99.90;;;;;;5139364;27;20031;-74
2022/04/09 08:01:41;;;;;;;10.80;8.10;;;7.00;99.90;;;;;;5079325;27;20449;-74
2022/04/09 08:04:07;;;;;;;9.23;2.08;;;7.10;99.90;;;;;;5099346;27;20443;-74
2022/04/09 08:06:33;;;;;;;7.80;2.03;;;7.20;99.90;;;;;;5094445;27;20072;-75
2022/04/09 08:08:59;;;;;;;7.00;1.90;;;7.20;99.90;;;;;;5105633;27;20046;-75
2022/04/09 08:11:24;;;;;;;10.40;2.10;;;7.20;99.90;;;;;;5094254;27;20055;-73
2022/04/09 08:13:50;;;;;;;9.68;1.83;;;7.40;99.90;;;;;;5102859;27;20035;-72
2022/04/09 08:16:16;;;;;;;7.80;2.70;;;7.40;99.90;;;;;;5078597;28;20072;-73
2022/04/09 08:18:41;;;;;;;12.98;2.88;;;7.40;99.90;;;;;;5094600;27;20051;-82
2022/04/09 08:21:07;;;;;;;9.48;1.98;;;7.60;99.90;;;;;;5112397;27;20055;-79
2022/04/09 08:23:33;;;;;;;8.65;2.05;;;7.60;99.90;;;;;;5124188;27;20055;-75
2022/04/09 08:26:00;;;;;;;8.48;2.08;;;7.60;99.90;;;;;;5111439;27;20054;-77
2022/04/09 08:28:30;;;;;;;7.25;2.10;;;7.40;99.90;;;;;;5121665;27;20055;-78
2022/04/09 08:30:55;;;;;;;11.80;2.35;;;7.40;99.90;;;;;;5107196;27;20055;-72
2022/04/09 08:33:21;;;;;;;8.15;3.00;;;7.50;99.90;;;;;;5118590;27;20104;-79
2022/04/09 08:35:47;;;;;;;11.93;2.40;;;7.60;99.90;;;;;;5092058;27;20051;-78
2022/04/09 08:38:14;;;;;;;6.65;2.10;;;7.80;99.90;;;;;;5122054;27;20057;-78
2022/04/09 08:40:41;;;;;;;9.10;2.40;;;7.60;99.90;;;;;;5109090;27;20401;-81
2022/04/09 08:43:08;;;;;;;8.77;2.30;;;7.80;99.90;;;;;;5144633;27;20042;-79
2022/04/09 08:45:40;;;;;;;6.80;2.00;;;7.70;99.90;;;;;;5108524;27;20065;-78
2022/04/09 08:48:07;;;;;;;8.30;2.40;;;7.60;99.90;;;;;;5126645;27;20443;-79
2022/04/09 08:50:35;;;;;;;8.90;2.30;;;7.70;99.90;;;;;;5133164;27;20045;-77
2022/04/09 08:53:06;;;;;;;9.38;2.35;;;7.90;99.90;;;;;;5127225;27;20095;-78
2022/04/09 08:55:34;;;;;;;9.73;2.22;;;7.90;99.90;;;;;;5114388;27;20039;-76
2022/04/09 08:57:59;;;;;;;11.32;2.05;;;8.10;99.90;;;;;;5124802;27;20038;-80
2022/04/09 09:00:25;;;;;;;5.72;2.03;;;8.30;99.90;;;;;;5133981;27;20074;-74
2022/04/09 09:02:53;;;;;;;7.70;2.00;;;8.30;99.90;;;;;;5135174;27;20305;-77
2022/04/09 09:05:40;;;;;;;7.07;2.42;;;8.30;99.90;;;;;;5141589;27;20534;-77
2022/04/09 09:08:08;;;;;;;13.00;2.35;;;8.40;99.90;;;;;;5110629;27;20057;-78
2022/04/09 09:10:35;;;;;;;9.70;2.65;;;8.40;99.90;;;;;;5130724;27;20035;-76
2022/04/09 09:13:09;;;;;;;10.55;2.92;;;8.20;99.90;;;;;;5121604;27;20049;-79
2022/04/09 09:15:50;;;;;;;15.18;3.20;;;8.10;99.90;;;;;;5104359;27;20106;-79
2022/04/09 09:18:20;;;;;;;;;;;7.90;99.90;;;;;;5168372;27;20088;-78
2022/04/09 09:20:53;;;;;;;9.25;2.40;;;7.70;99.90;;;;;;5127640;27;20178;-77
2022/04/09 09:23:31;;;;;;;10.82;3.15;;;7.70;99.90;;;;;;5141249;27;20483;-76
2022/04/09 09:25:59;;;;;;;10.98;2.25;;;7.90;99.90;;;;;;5130620;27;20136;-79
2022/04/09 09:28:30;;;;;;;10.40;1.90;;;8.00;99.90;;;;;;5141621;27;20617;-75
2022/04/09 09:30:57;;;;;;;13.20;3.08;;;8.30;99.90;;;;;;5128226;27;20058;-80
2022/04/09 09:33:23;;;;;;;10.73;2.20;;;8.40;99.90;;;;;;5146942;27;20039;-80
2022/04/09 09:35:56;;;;;;;8.45;2.33;;;8.40;99.90;;;;;;5131645;27;20038;-81
2022/04/09 09:38:27;;;;;;;15.63;2.13;;;8.40;99.90;;;;;;5146124;27;20231;-79
2022/04/09 09:40:53;;;;;;;10.40;2.95;;;8.50;99.90;;;;;;5126425;27;20062;-79
2022/04/09 09:43:21;;;;;;;9.35;2.17;;;8.60;99.90;;;;;;5076948;27;20188;-77
2022/04/09 09:45:49;;;;;;;10.25;2.47;;;8.60;99.90;;;;;;5119955;27;20035;-79
2022/04/09 09:48:29;;;;;;;11.85;2.03;;;8.60;99.90;;;;;;5104977;27;20066;-82
2022/04/09 09:50:58;;;;;;;9.02;2.17;;;8.70;99.90;;;;;;5138103;27;20035;-78
2022/04/09 09:53:31;;;;;;;9.05;2.13;;;8.60;99.90;;;;;;5092478;27;20083;-80
2022/04/09 09:56:01;;;;;;;7.35;1.80;;;8.90;99.90;;;;;;5121184;27;20065;-80
2022/04/09 09:58:29;;;;;;;5.97;1.73;;;7.90;99.90;;;;;;5091813;27;20051;-72
2022/04/09 10:00:58;;;;;;;6.03;1.70;;;7.40;99.90;;;;;;5131799;27;20281;-81
2022/04/09 10:03:26;;;;;;;6.93;1.67;;;6.90;99.90;;;;;;5079840;27;20083;-83
2022/04/09 10:05:52;;;;;;;5.25;1.52;;;6.50;99.90;;;;;;5120501;27;20082;-79
2022/04/09 10:08:19;;;;;;;9.05;2.20;;;6.40;99.90;;;;;;5106032;27;20524;-77
2022/04/09 10:10:49;;;;;;;6.57;1.90;;;6.20;99.90;;;;;;5119953;27;20746;-80
2022/04/09 10:13:24;;;;;;;6.40;1.75;;;6.20;99.90;;;;;;5101597;27;20376;-81
2022/04/09 10:15:52;;;;;;;5.38;1.48;;;6.40;99.90;;;;;;5119414;27;20047;-78
2022/04/09 10:18:24;;;;;;;9.52;2.25;;;6.50;99.90;;;;;;5080735;28;20056;-78
2022/04/09 10:20:59;;;;;;;9.50;2.30;;;6.70;99.90;;;;;;5137792;27;20558;-71
2022/04/09 10:23:32;;;;;;;11.88;2.50;;;6.50;99.90;;;;;;5108490;27;20100;-77
2022/04/09 10:26:00;;;;;;;9.85;2.35;;;6.50;99.90;;;;;;5119088;27;20058;-81
2022/04/09 10:28:38;;;;;;;10.70;2.83;;;6.70;99.90;;;;;;5108168;27;20054;-77
2022/04/09 10:31:22;;;;;;;7.88;2.03;;;7.00;99.90;;;;;;5131406;27;20073;-76
2022/04/09 10:33:56;;;;;;;9.90;2.28;;;7.40;99.90;;;;;;5092717;27;20053;-76
2022/04/09 10:36:40;;;;;;;10.82;2.25;;;7.70;99.90;;;;;;5108801;27;20791;-76
2022/04/09 10:39:22;;;;;;;11.05;1.95;;;7.10;99.90;;;;;;5117503;27;20489;-74
2022/04/09 10:41:49;;;;;;;7.82;1.55;;;7.00;99.90;;;;;;5118551;27;20072;-72
2022/04/09 10:44:34;;;;;;;11.38;2.30;;;6.70;99.90;;;;;;5074358;27;20042;-75
2022/04/09 10:47:01;;;;;;;7.28;2.45;;;6.60;99.90;;;;;;5108362;27;20055;-76
2022/04/09 10:49:28;;;;;;;9.95;1.73;;;6.70;99.90;;;;;;5119070;27;20678;-75
2022/04/09 10:52:03;;;;;;;8.52;1.83;;;7.20;99.90;;;;;;5072718;28;20051;-75
2022/04/09 10:54:29;;;;;;;13.65;2.78;;;7.50;99.90;;;;;;5119345;28;20533;-72
2022/04/09 10:57:05;;;;;;;7.20;1.80;;;7.30;99.90;;;;;;5108314;27;20047;-73
2022/04/09 10:59:31;;;;;;;7.93;1.48;;;7.70;99.90;;;;;;5104499;28;20113;-79
2022/04/09 11:01:57;;;;;;;5.50;1.77;;;8.10;99.90;;;;;;5064820;27;20115;-74
2022/04/09 11:07:07;;;;;;;3.83;1.50;;;8.30;99.90;;;;;;5101135;28;20074;-70
2022/04/09 11:09:47;;;;;;;5.43;1.63;;;8.50;99.90;;;;;;5102566;28;20047;-80
2022/04/09 11:12:21;;;;;;;4.75;1.63;;;8.90;99.90;;;;;;5106186;28;20145;-74
2022/04/09 11:14:58;;;;;;;6.32;1.75;;;8.70;99.90;;;;;;5119225;28;20823;-74
2022/04/09 11:17:34;;;;;;;10.23;2.47;;;8.50;99.90;;;;;;5102514;28;20134;-75
2022/04/09 11:20:06;;;;;;;8.65;2.15;;;8.50;99.90;;;;;;5102204;28;20414;-75
2022/04/09 11:22:36;;;;;;;8.43;1.88;;;8.10;99.90;;;;;;5091640;28;20116;-74
2022/04/09 11:25:04;;;;;;;8.15;2.63;;;8.10;99.90;;;;;;5119319;28;20038;-74
2022/04/09 11:27:30;;;;;;;6.90;1.63;;;7.80;99.90;;;;;;5120800;28;20051;-74
2022/04/09 11:29:56;;;;;;;4.88;1.80;;;7.90;99.90;;;;;;5118806;28;20097;-74
2022/04/09 11:32:23;;;;;;;5.10;1.60;;;7.80;99.90;;;;;;5127088;27;20055;-75
2022/04/09 11:34:50;;;;;;;9.48;2.05;;;8.00;99.90;;;;;;5117799;28;20035;-75
2022/04/09 11:37:16;;;;;;;8.32;1.90;;;8.30;99.90;;;;;;5108408;28;20071;-74
2022/04/09 11:39:45;;;;;;;7.45;1.80;;;8.50;99.90;;;;;;5113343;28;20049;-74
2022/04/09 11:42:11;;;;;;;7.93;1.63;;;8.70;99.90;;;;;;5128261;27;20112;-74
2022/04/09 11:44:41;;;;;;;6.97;2.30;;;8.80;99.90;;;;;;5138405;28;20035;-73
2022/04/09 11:47:10;;;;;;;6.90;1.48;;;8.60;99.90;;;;;;5103254;28;20077;-74
2022/04/09 11:49:36;;;;;;;5.53;2.00;;;8.70;99.90;;;;;;5110410;27;20043;-75
2022/04/09 11:52:03;;;;;;;5.65;1.40;;;8.60;99.90;;;;;;5108223;27;20745;-76
2022/04/09 11:54:33;;;;;;;4.55;1.42;;;8.70;99.90;;;;;;5114721;27;20034;-73
2022/04/09 11:57:00;;;;;;;5.68;1.75;;;8.30;99.90;;;;;;5128147;27;20329;-74
2022/04/09 11:59:26;;;;;;;4.35;1.50;;;7.90;99.90;;;;;;5122014;27;20124;-74
2022/04/09 12:01:52;;;;;;;4.00;1.60;;;7.60;99.90;;;;;;5105873;27;20050;-74
2022/04/09 12:04:20;;;;;;;6.72;1.77;;;7.70;99.90;;;;;;5137440;27;20564;-75
2022/04/09 12:06:46;;;;;;;8.43;1.77;;;7.90;99.90;;;;;;5123784;27;20061;-75
2022/04/09 12:09:13;;;;;;;8.00;1.50;;;8.10;99.90;;;;;;5144072;27;20071;-76
2022/04/09 12:11:54;;;;;;;7.47;1.92;;;8.50;99.90;;;;;;5132743;27;20039;-74
2022/04/09 12:14:20;;;;;;;7.45;1.75;;;8.70;99.90;;;;;;5140078;27;20099;-75
2022/04/09 12:16:47;;;;;;;7.00;1.60;;;8.80;99.90;;;;;;5131767;27;20049;-75
2022/04/09 12:19:13;;;;;;;6.93;1.77;;;9.00;99.90;;;;;;5142880;27;20051;-77
2022/04/09 12:21:39;;;;;;;6.47;1.65;;;9.10;99.90;;;;;;5133080;27;20074;-76
2022/04/09 12:24:09;;;;;;;7.63;1.80;;;9.20;99.90;;;;;;5143667;27;20077;-76
2022/04/09 12:26:43;;;;;;;6.60;2.15;;;8.80;99.90;;;;;;5126710;27;20042;-77
2022/04/09 12:29:13;;;;;;;7.05;2.20;;;8.70;99.90;;;;;;5143413;27;20118;-71
2022/04/09 12:31:43;;;;;;;7.75;2.58;;;8.60;99.90;;;;;;5124711;27;20050;-73
2022/04/09 12:34:09;;;;;;;;;;;8.80;99.90;;;;;;5141521;27;20038;-73
2022/04/09 12:36:41;;;;;;;9.65;2.15;;;8.70;99.90;;;;;;5134421;27;20218;-73
2022/04/09 12:39:26;;;;;;;8.07;1.90;;;9.00;99.90;;;;;;5139641;27;20050;-73
2022/04/09 12:41:55;;;;;;;5.30;1.30;;;9.20;99.90;;;;;;5115761;27;20063;-73
2022/04/09 12:44:28;;;;;;;3.35;1.20;;;8.30;99.90;;;;;;5145364;27;20051;-73
2022/04/09 12:46:54;;;;;;;4.70;1.25;;;7.00;99.90;;;;;;5131958;27;20059;-73
2022/04/09 12:49:25;;;;;;;2.80;1.10;;;6.70;99.90;;;;;;5141559;27;20043;-73
2022/04/09 12:51:52;;;;;;;9.07;1.90;;;6.40;99.90;;;;;;5131115;27;20039;-73
2022/04/09 12:54:18;;;;;;;4.93;1.40;;;6.50;99.90;;;;;;5130363;27;20574;-73
2022/04/09 12:56:44;;;;;;;5.55;1.55;;;6.80;99.90;;;;;;5113403;27;20073;-73
2022/04/09 12:59:10;;;;;;;3.53;1.30;;;7.10;99.90;;;;;;5140345;27;20069;-73
2022/04/09 13:01:36;;;;;;;6.22;1.77;;;7.50;99.90;;;;;;5143903;27;20111;-73